KMER

Castle Airport

Atwater, California, USA
METAR KMER 250345Z 33010KT 10SM SCT070 BKN100 17/10 A2999
Observed Flight Rules
May-25 @ 03:45 UTC (2 hours ago) Visual Flight Rules
Wind Visibility Clouds
330° at 10 knots 10 miles
  • Scattered at 7,000' AGL
  • Broken at 10,000' AGL
Temperatures Readings
Current 17°C / 63°F
Dewpoint 10°C / 50°F
Humidity 64%
Altimeter 29.99" Hg
Pressure 1016 hPa
Elevation 57
METAR KMER 250345Z 33010KT 10SM SCT070 BKN100 17/10 A2999
Observed Flight Rules
May-25 @ 03:45 UTC
(2 hours ago)
VFR
Wind Visibility
330° at 10 knots 10 miles
Clouds
  • Scattered at 7,000' AGL
  • Broken at 10,000' AGL
Temperature Dewpoint
17°C / 63°F 10°C / 50°F
Humidity Altimeter Pressure
64% 29.99" Hg 1016 hPa